sensor_id;sensor_type;location;lat;lon;timestamp;temperature;humidity
20337;DHT22;10326;53.660;10.200;2024-03-08T00:00:42;5.90;85.40
20337;DHT22;10326;53.660;10.200;2024-03-08T00:03:09;5.90;85.30
20337;DHT22;10326;53.660;10.200;2024-03-08T00:05:36;5.90;85.40
20337;DHT22;10326;53.660;10.200;2024-03-08T00:08:05;5.80;85.40
20337;DHT22;10326;53.660;10.200;2024-03-08T00:10:35;5.80;85.50
20337;DHT22;10326;53.660;10.200;2024-03-08T00:13:04;5.80;85.50
20337;DHT22;10326;53.660;10.200;2024-03-08T00:15:33;5.80;85.50
20337;DHT22;10326;53.660;10.200;2024-03-08T00:18:00;5.80;85.50
20337;DHT22;10326;53.660;10.200;2024-03-08T00:20:27;5.70;85.50
20337;DHT22;10326;53.660;10.200;2024-03-08T00:22:55;5.70;85.60
20337;DHT22;10326;53.660;10.200;2024-03-08T00:25:23;5.70;85.70
20337;DHT22;10326;53.660;10.200;2024-03-08T00:27:51;5.70;85.80
20337;DHT22;10326;53.660;10.200;2024-03-08T00:30:21;5.70;85.80
20337;DHT22;10326;53.660;10.200;2024-03-08T00:32:52;5.60;85.80
20337;DHT22;10326;53.660;10.200;2024-03-08T00:35:19;5.60;85.70
20337;DHT22;10326;53.660;10.200;2024-03-08T00:37:46;5.60;85.60
20337;DHT22;10326;53.660;10.200;2024-03-08T00:40:13;5.60;85.70
20337;DHT22;10326;53.660;10.200;2024-03-08T00:42:40;5.60;85.80
20337;DHT22;10326;53.660;10.200;2024-03-08T00:45:10;5.50;85.80
20337;DHT22;10326;53.660;10.200;2024-03-08T00:47:37;5.50;85.90
20337;DHT22;10326;53.660;10.200;2024-03-08T00:50:07;5.50;86.00
20337;DHT22;10326;53.660;10.200;2024-03-08T00:52:34;5.50;86.10
20337;DHT22;10326;53.660;10.200;2024-03-08T00:55:01;5.40;85.90
20337;DHT22;10326;53.660;10.200;2024-03-08T00:57:29;5.40;85.90
20337;DHT22;10326;53.660;10.200;2024-03-08T00:59:56;5.40;86.10
20337;DHT22;10326;53.660;10.200;2024-03-08T01:02:23;5.40;86.20
20337;DHT22;10326;53.660;10.200;2024-03-08T01:04:51;5.40;86.30
20337;DHT22;10326;53.660;10.200;2024-03-08T01:07:20;5.30;86.30
20337;DHT22;10326;53.660;10.200;2024-03-08T01:09:47;5.30;86.30
20337;DHT22;10326;53.660;10.200;2024-03-08T01:12:14;5.30;86.30
20337;DHT22;10326;53.660;10.200;2024-03-08T01:14:42;5.30;86.40
20337;DHT22;10326;53.660;10.200;2024-03-08T01:17:12;5.20;86.30
20337;DHT22;10326;53.660;10.200;2024-03-08T01:19:40;5.20;86.50
20337;DHT22;10326;53.660;10.200;2024-03-08T01:22:07;5.20;86.60
20337;DHT22;10326;53.660;10.200;2024-03-08T01:24:36;5.20;86.50
20337;DHT22;10326;53.660;10.200;2024-03-08T01:27:04;5.20;86.60
20337;DHT22;10326;53.660;10.200;2024-03-08T01:29:31;5.20;86.70
20337;DHT22;10326;53.660;10.200;2024-03-08T01:31:58;5.20;86.60
20337;DHT22;10326;53.660;10.200;2024-03-08T01:34:27;5.20;86.60
20337;DHT22;10326;53.660;10.200;2024-03-08T01:36:54;5.10;86.60
20337;DHT22;10326;53.660;10.200;2024-03-08T01:39:22;5.20;86.60
20337;DHT22;10326;53.660;10.200;2024-03-08T01:41:50;5.10;86.50
20337;DHT22;10326;53.660;10.200;2024-03-08T01:44:17;5.10;86.50
20337;DHT22;10326;53.660;10.200;2024-03-08T01:46:44;5.10;86.50
20337;DHT22;10326;53.660;10.200;2024-03-08T01:49:12;5.10;86.60
20337;DHT22;10326;53.660;10.200;2024-03-08T01:51:40;5.10;86.50
20337;DHT22;10326;53.660;10.200;2024-03-08T01:54:08;5.00;86.60
20337;DHT22;10326;53.660;10.200;2024-03-08T01:56:37;5.00;86.70
20337;DHT22;10326;53.660;10.200;2024-03-08T01:59:06;5.00;86.60
20337;DHT22;10326;53.660;10.200;2024-03-08T02:01:34;5.00;86.60
20337;DHT22;10326;53.660;10.200;2024-03-08T02:04:01;5.00;86.60
20337;DHT22;10326;53.660;10.200;2024-03-08T02:06:28;5.00;86.60
20337;DHT22;10326;53.660;10.200;2024-03-08T02:08:55;4.90;86.50
20337;DHT22;10326;53.660;10.200;2024-03-08T02:11:22;4.90;86.50
20337;DHT22;10326;53.660;10.200;2024-03-08T02:13:49;4.90;86.40
20337;DHT22;10326;53.660;10.200;2024-03-08T02:16:21;4.90;86.40
20337;DHT22;10326;53.660;10.200;2024-03-08T02:18:49;4.90;86.50
20337;DHT22;10326;53.660;10.200;2024-03-08T02:21:18;4.90;86.30
20337;DHT22;10326;53.660;10.200;2024-03-08T02:23:47;4.90;86.30
20337;DHT22;10326;53.660;10.200;2024-03-08T02:26:14;4.90;86.20
20337;DHT22;10326;53.660;10.200;2024-03-08T02:28:41;4.90;86.10
20337;DHT22;10326;53.660;10.200;2024-03-08T02:31:09;4.80;86.20
20337;DHT22;10326;53.660;10.200;2024-03-08T02:33:36;4.80;86.10
20337;DHT22;10326;53.660;10.200;2024-03-08T02:36:03;4.80;86.00
20337;DHT22;10326;53.660;10.200;2024-03-08T02:38:33;4.80;86.10
20337;DHT22;10326;53.660;10.200;2024-03-08T02:41:00;4.80;86.10
20337;DHT22;10326;53.660;10.200;2024-03-08T02:43:28;4.80;86.00
20337;DHT22;10326;53.660;10.200;2024-03-08T02:45:55;4.80;86.00
20337;DHT22;10326;53.660;10.200;2024-03-08T02:48:22;4.80;86.60
20337;DHT22;10326;53.660;10.200;2024-03-08T02:50:49;4.80;86.10
20337;DHT22;10326;53.660;10.200;2024-03-08T02:53:17;4.70;85.90
20337;DHT22;10326;53.660;10.200;2024-03-08T02:55:46;4.80;86.00
20337;DHT22;10326;53.660;10.200;2024-03-08T02:58:13;4.70;85.80
20337;DHT22;10326;53.660;10.200;2024-03-08T03:00:40;4.70;85.80
20337;DHT22;10326;53.660;10.200;2024-03-08T03:03:08;4.70;85.80
20337;DHT22;10326;53.660;10.200;2024-03-08T03:05:35;4.70;85.80
20337;DHT22;10326;53.660;10.200;2024-03-08T03:08:03;4.70;85.80
20337;DHT22;10326;53.660;10.200;2024-03-08T03:10:34;4.70;85.80
20337;DHT22;10326;53.660;10.200;2024-03-08T03:13:03;4.70;85.80
20337;DHT22;10326;53.660;10.200;2024-03-08T03:15:31;4.70;85.80
20337;DHT22;10326;53.660;10.200;2024-03-08T03:17:59;4.70;85.80
20337;DHT22;10326;53.660;10.200;2024-03-08T03:20:26;4.60;85.70
20337;DHT22;10326;53.660;10.200;2024-03-08T03:22:58;4.70;85.70
20337;DHT22;10326;53.660;10.200;2024-03-08T03:25:27;4.60;85.70
20337;DHT22;10326;53.660;10.200;2024-03-08T03:27:59;4.60;85.70
20337;DHT22;10326;53.660;10.200;2024-03-08T03:30:27;4.60;85.70
20337;DHT22;10326;53.660;10.200;2024-03-08T03:32:59;4.60;85.70
20337;DHT22;10326;53.660;10.200;2024-03-08T03:35:27;4.60;85.80
20337;DHT22;10326;53.660;10.200;2024-03-08T03:37:54;4.50;85.60
20337;DHT22;10326;53.660;10.200;2024-03-08T03:40:32;4.50;85.60
20337;DHT22;10326;53.660;10.200;2024-03-08T03:42:59;4.50;85.60
20337;DHT22;10326;53.660;10.200;2024-03-08T03:45:28;4.50;85.70
20337;DHT22;10326;53.660;10.200;2024-03-08T03:47:54;4.50;85.70
20337;DHT22;10326;53.660;10.200;2024-03-08T03:50:21;4.50;85.70
20337;DHT22;10326;53.660;10.200;2024-03-08T03:52:49;4.50;85.70
20337;DHT22;10326;53.660;10.200;2024-03-08T03:55:16;4.40;85.60
20337;DHT22;10326;53.660;10.200;2024-03-08T03:57:43;4.40;85.60
20337;DHT22;10326;53.660;10.200;2024-03-08T04:00:12;4.40;85.70
20337;DHT22;10326;53.660;10.200;2024-03-08T04:02:41;4.40;85.70
20337;DHT22;10326;53.660;10.200;2024-03-08T04:05:09;4.30;85.60
20337;DHT22;10326;53.660;10.200;2024-03-08T04:07:37;4.30;85.70
20337;DHT22;10326;53.660;10.200;2024-03-08T04:10:06;4.30;85.70
20337;DHT22;10326;53.660;10.200;2024-03-08T04:12:35;4.30;85.70
20337;DHT22;10326;53.660;10.200;2024-03-08T04:15:03;4.30;85.70
20337;DHT22;10326;53.660;10.200;2024-03-08T04:17:32;4.30;85.80
20337;DHT22;10326;53.660;10.200;2024-03-08T04:20:03;4.30;85.70
20337;DHT22;10326;53.660;10.200;2024-03-08T04:22:35;4.20;85.70
20337;DHT22;10326;53.660;10.200;2024-03-08T04:25:02;4.20;85.70
20337;DHT22;10326;53.660;10.200;2024-03-08T04:27:29;4.20;85.70
20337;DHT22;10326;53.660;10.200;2024-03-08T04:29:58;4.20;85.70
20337;DHT22;10326;53.660;10.200;2024-03-08T04:32:25;4.20;85.70
20337;DHT22;10326;53.660;10.200;2024-03-08T04:34:53;4.20;85.60
20337;DHT22;10326;53.660;10.200;2024-03-08T04:37:21;4.20;85.60
20337;DHT22;10326;53.660;10.200;2024-03-08T04:39:48;4.20;85.60
20337;DHT22;10326;53.660;10.200;2024-03-08T04:42:15;4.10;85.50
20337;DHT22;10326;53.660;10.200;2024-03-08T04:44:43;4.10;85.50
20337;DHT22;10326;53.660;10.200;2024-03-08T04:47:10;4.10;85.60
20337;DHT22;10326;53.660;10.200;2024-03-08T04:49:37;4.10;85.60
20337;DHT22;10326;53.660;10.200;2024-03-08T04:52:06;4.10;85.60
20337;DHT22;10326;53.660;10.200;2024-03-08T04:54:35;4.10;85.60
20337;DHT22;10326;53.660;10.200;2024-03-08T04:57:02;4.00;85.60
20337;DHT22;10326;53.660;10.200;2024-03-08T04:59:30;4.00;85.60
20337;DHT22;10326;53.660;10.200;2024-03-08T05:01:57;4.10;85.70
20337;DHT22;10326;53.660;10.200;2024-03-08T05:04:24;4.00;85.60
20337;DHT22;10326;53.660;10.200;2024-03-08T05:06:51;4.00;85.70
20337;DHT22;10326;53.660;10.200;2024-03-08T05:09:19;4.00;85.70
20337;DHT22;10326;53.660;10.200;2024-03-08T05:11:47;4.00;85.90
20337;DHT22;10326;53.660;10.200;2024-03-08T05:14:15;4.00;86.00
20337;DHT22;10326;53.660;10.200;2024-03-08T05:16:45;4.00;86.10
20337;DHT22;10326;53.660;10.200;2024-03-08T05:19:14;4.00;86.30
20337;DHT22;10326;53.660;10.200;2024-03-08T05:21:42;4.00;86.40
20337;DHT22;10326;53.660;10.200;2024-03-08T05:24:10;4.00;86.50
20337;DHT22;10326;53.660;10.200;2024-03-08T05:26:37;4.00;86.50
20337;DHT22;10326;53.660;10.200;2024-03-08T05:29:05;4.00;86.60
20337;DHT22;10326;53.660;10.200;2024-03-08T05:31:38;4.00;86.70
20337;DHT22;10326;53.660;10.200;2024-03-08T05:34:10;4.00;86.90
20337;DHT22;10326;53.660;10.200;2024-03-08T05:36:40;4.00;86.70
20337;DHT22;10326;53.660;10.200;2024-03-08T05:39:07;4.00;86.80
20337;DHT22;10326;53.660;10.200;2024-03-08T05:41:36;4.00;86.70
20337;DHT22;10326;53.660;10.200;2024-03-08T05:44:04;4.00;86.80
20337;DHT22;10326;53.660;10.200;2024-03-08T05:46:32;4.00;86.80
20337;DHT22;10326;53.660;10.200;2024-03-08T05:48:58;4.00;86.80
20337;DHT22;10326;53.660;10.200;2024-03-08T05:51:26;4.00;86.90
20337;DHT22;10326;53.660;10.200;2024-03-08T05:53:53;4.00;86.90
20337;DHT22;10326;53.660;10.200;2024-03-08T05:56:22;4.00;86.90
20337;DHT22;10326;53.660;10.200;2024-03-08T05:58:49;4.00;86.90
20337;DHT22;10326;53.660;10.200;2024-03-08T06:01:17;4.00;87.10
20337;DHT22;10326;53.660;10.200;2024-03-08T06:03:44;4.00;87.20
20337;DHT22;10326;53.660;10.200;2024-03-08T06:06:13;4.00;87.20
20337;DHT22;10326;53.660;10.200;2024-03-08T06:08:41;4.00;87.50
20337;DHT22;10326;53.660;10.200;2024-03-08T06:11:09;4.00;87.30
20337;DHT22;10326;53.660;10.200;2024-03-08T06:13:36;4.00;87.20
20337;DHT22;10326;53.660;10.200;2024-03-08T06:16:04;4.00;87.30
20337;DHT22;10326;53.660;10.200;2024-03-08T06:18:35;4.00;87.40
20337;DHT22;10326;53.660;10.200;2024-03-08T06:21:02;4.00;87.40
20337;DHT22;10326;53.660;10.200;2024-03-08T06:23:30;4.00;87.40
20337;DHT22;10326;53.660;10.200;2024-03-08T06:25:57;4.00;87.50
20337;DHT22;10326;53.660;10.200;2024-03-08T06:28:24;4.00;87.50
20337;DHT22;10326;53.660;10.200;2024-03-08T06:30:51;4.00;87.50
20337;DHT22;10326;53.660;10.200;2024-03-08T06:33:18;4.00;87.60
20337;DHT22;10326;53.660;10.200;2024-03-08T06:35:47;4.00;87.60
20337;DHT22;10326;53.660;10.200;2024-03-08T06:38:14;4.00;87.70
20337;DHT22;10326;53.660;10.200;2024-03-08T06:40:42;4.00;87.60
20337;DHT22;10326;53.660;10.200;2024-03-08T06:43:09;4.00;87.60
20337;DHT22;10326;53.660;10.200;2024-03-08T06:45:39;4.00;87.70
20337;DHT22;10326;53.660;10.200;2024-03-08T06:48:07;4.00;87.70
20337;DHT22;10326;53.660;10.200;2024-03-08T06:50:35;4.10;87.70
20337;DHT22;10326;53.660;10.200;2024-03-08T06:53:04;4.00;87.70
20337;DHT22;10326;53.660;10.200;2024-03-08T06:55:31;4.00;87.70
20337;DHT22;10326;53.660;10.200;2024-03-08T06:57:59;4.10;87.80
20337;DHT22;10326;53.660;10.200;2024-03-08T07:00:26;4.10;87.80
20337;DHT22;10326;53.660;10.200;2024-03-08T07:02:54;4.10;87.90
20337;DHT22;10326;53.660;10.200;2024-03-08T07:05:21;4.10;88.00
20337;DHT22;10326;53.660;10.200;2024-03-08T07:07:48;4.10;87.90
20337;DHT22;10326;53.660;10.200;2024-03-08T07:10:17;4.10;88.10
20337;DHT22;10326;53.660;10.200;2024-03-08T07:12:44;4.10;88.20
20337;DHT22;10326;53.660;10.200;2024-03-08T07:15:12;4.10;88.20
20337;DHT22;10326;53.660;10.200;2024-03-08T07:17:40;4.10;88.20
20337;DHT22;10326;53.660;10.200;2024-03-08T07:20:10;4.10;88.30
20337;DHT22;10326;53.660;10.200;2024-03-08T07:22:39;4.20;88.60
20337;DHT22;10326;53.660;10.200;2024-03-08T07:25:06;4.20;88.50
20337;DHT22;10326;53.660;10.200;2024-03-08T07:27:47;4.20;88.60
20337;DHT22;10326;53.660;10.200;2024-03-08T07:30:15;4.20;88.60
20337;DHT22;10326;53.660;10.200;2024-03-08T07:33:04;4.20;89.10
20337;DHT22;10326;53.660;10.200;2024-03-08T07:35:31;4.20;88.50
20337;DHT22;10326;53.660;10.200;2024-03-08T07:37:58;4.30;88.60
20337;DHT22;10326;53.660;10.200;2024-03-08T07:40:26;4.30;88.70
20337;DHT22;10326;53.660;10.200;2024-03-08T07:42:54;4.30;88.80
20337;DHT22;10326;53.660;10.200;2024-03-08T07:45:22;4.30;88.80
20337;DHT22;10326;53.660;10.200;2024-03-08T07:47:49;4.30;88.90
20337;DHT22;10326;53.660;10.200;2024-03-08T07:50:16;4.30;88.90
20337;DHT22;10326;53.660;10.200;2024-03-08T07:52:45;4.40;89.10
20337;DHT22;10326;53.660;10.200;2024-03-08T07:55:12;4.40;89.10
20337;DHT22;10326;53.660;10.200;2024-03-08T07:57:39;4.40;89.10
20337;DHT22;10326;53.660;10.200;2024-03-08T08:00:07;4.50;89.20
20337;DHT22;10326;53.660;10.200;2024-03-08T08:02:36;4.50;89.30
20337;DHT22;10326;53.660;10.200;2024-03-08T08:05:04;4.50;89.30
20337;DHT22;10326;53.660;10.200;2024-03-08T08:07:31;4.50;89.40
20337;DHT22;10326;53.660;10.200;2024-03-08T08:09:58;4.60;89.40
20337;DHT22;10326;53.660;10.200;2024-03-08T08:12:25;4.60;89.40
20337;DHT22;10326;53.660;10.200;2024-03-08T08:14:53;4.60;89.50
20337;DHT22;10326;53.660;10.200;2024-03-08T08:17:22;4.70;89.60
20337;DHT22;10326;53.660;10.200;2024-03-08T08:19:50;4.70;89.80
20337;DHT22;10326;53.660;10.200;2024-03-08T08:22:16;4.70;89.70
20337;DHT22;10326;53.660;10.200;2024-03-08T08:24:44;4.80;89.80
20337;DHT22;10326;53.660;10.200;2024-03-08T08:27:11;4.80;89.70
20337;DHT22;10326;53.660;10.200;2024-03-08T08:29:38;4.80;89.80
20337;DHT22;10326;53.660;10.200;2024-03-08T08:32:06;4.90;89.90
20337;DHT22;10326;53.660;10.200;2024-03-08T08:34:34;4.90;89.90
20337;DHT22;10326;53.660;10.200;2024-03-08T08:37:01;5.00;90.00
20337;DHT22;10326;53.660;10.200;2024-03-08T08:39:27;5.00;90.00
20337;DHT22;10326;53.660;10.200;2024-03-08T08:41:55;5.10;90.00
20337;DHT22;10326;53.660;10.200;2024-03-08T08:44:22;5.10;90.00
20337;DHT22;10326;53.660;10.200;2024-03-08T08:46:48;5.20;90.00
20337;DHT22;10326;53.660;10.200;2024-03-08T08:49:16;5.20;90.00
20337;DHT22;10326;53.660;10.200;2024-03-08T08:51:50;5.20;90.00
20337;DHT22;10326;53.660;10.200;2024-03-08T08:54:17;5.30;90.10
20337;DHT22;10326;53.660;10.200;2024-03-08T08:56:44;5.30;90.00
20337;DHT22;10326;53.660;10.200;2024-03-08T08:59:11;5.30;90.00
20337;DHT22;10326;53.660;10.200;2024-03-08T09:01:39;5.40;90.10
20337;DHT22;10326;53.660;10.200;2024-03-08T09:04:06;5.40;90.10
20337;DHT22;10326;53.660;10.200;2024-03-08T09:06:33;5.40;90.10
20337;DHT22;10326;53.660;10.200;2024-03-08T09:09:02;5.50;90.10
20337;DHT22;10326;53.660;10.200;2024-03-08T09:11:30;5.50;90.10
20337;DHT22;10326;53.660;10.200;2024-03-08T09:13:57;5.60;90.10
20337;DHT22;10326;53.660;10.200;2024-03-08T09:16:24;5.60;90.10
20337;DHT22;10326;53.660;10.200;2024-03-08T09:18:51;5.70;90.10
20337;DHT22;10326;53.660;10.200;2024-03-08T09:21:18;5.70;90.10
20337;DHT22;10326;53.660;10.200;2024-03-08T09:23:45;5.80;90.10
20337;DHT22;10326;53.660;10.200;2024-03-08T09:26:13;5.80;90.10
20337;DHT22;10326;53.660;10.200;2024-03-08T09:28:40;5.80;90.10
20337;DHT22;10326;53.660;10.200;2024-03-08T09:31:07;5.90;90.20
20337;DHT22;10326;53.660;10.200;2024-03-08T09:33:36;5.90;90.20
20337;DHT22;10326;53.660;10.200;2024-03-08T09:36:05;6.00;90.20
20337;DHT22;10326;53.660;10.200;2024-03-08T09:38:33;6.10;90.20
20337;DHT22;10326;53.660;10.200;2024-03-08T09:41:00;6.20;90.30
20337;DHT22;10326;53.660;10.200;2024-03-08T09:43:30;6.20;90.20
20337;DHT22;10326;53.660;10.200;2024-03-08T09:45:58;6.20;90.10
20337;DHT22;10326;53.660;10.200;2024-03-08T09:48:25;6.30;90.20
20337;DHT22;10326;53.660;10.200;2024-03-08T09:50:54;6.40;90.30
20337;DHT22;10326;53.660;10.200;2024-03-08T09:53:22;6.40;90.30
20337;DHT22;10326;53.660;10.200;2024-03-08T09:55:49;6.50;90.30
20337;DHT22;10326;53.660;10.200;2024-03-08T09:58:17;6.50;90.20
20337;DHT22;10326;53.660;10.200;2024-03-08T10:01:03;6.60;90.20
20337;DHT22;10326;53.660;10.200;2024-03-08T10:03:31;6.70;90.20
20337;DHT22;10326;53.660;10.200;2024-03-08T10:05:59;6.80;90.10
20337;DHT22;10326;53.660;10.200;2024-03-08T10:08:27;6.80;90.10
20337;DHT22;10326;53.660;10.200;2024-03-08T10:10:55;6.90;90.00
20337;DHT22;10326;53.660;10.200;2024-03-08T10:13:25;7.00;89.70
20337;DHT22;10326;53.660;10.200;2024-03-08T10:15:53;7.00;89.80
20337;DHT22;10326;53.660;10.200;2024-03-08T10:18:22;7.10;89.70
20337;DHT22;10326;53.660;10.200;2024-03-08T10:21:02;7.20;89.50
20337;DHT22;10326;53.660;10.200;2024-03-08T10:23:30;7.20;89.20
20337;DHT22;10326;53.660;10.200;2024-03-08T10:26:09;7.30;89.40
20337;DHT22;10326;53.660;10.200;2024-03-08T10:28:40;7.40;89.20
20337;DHT22;10326;53.660;10.200;2024-03-08T10:31:08;7.40;89.20
20337;DHT22;10326;53.660;10.200;2024-03-08T10:33:38;7.40;89.20
20337;DHT22;10326;53.660;10.200;2024-03-08T10:36:06;7.50;89.10
20337;DHT22;10326;53.660;10.200;2024-03-08T10:38:36;7.60;89.00
20337;DHT22;10326;53.660;10.200;2024-03-08T10:41:05;7.60;88.90
20337;DHT22;10326;53.660;10.200;2024-03-08T10:43:41;7.70;88.90
20337;DHT22;10326;53.660;10.200;2024-03-08T10:46:25;7.70;88.60
20337;DHT22;10326;53.660;10.200;2024-03-08T10:49:00;7.80;88.80
20337;DHT22;10326;53.660;10.200;2024-03-08T10:51:31;7.80;88.20
20337;DHT22;10326;53.660;10.200;2024-03-08T10:53:59;7.90;88.20
20337;DHT22;10326;53.660;10.200;2024-03-08T10:56:29;8.00;87.70
20337;DHT22;10326;53.660;10.200;2024-03-08T10:58:56;8.00;87.50
20337;DHT22;10326;53.660;10.200;2024-03-08T11:01:23;8.10;87.10
20337;DHT22;10326;53.660;10.200;2024-03-08T11:03:51;8.10;87.20
20337;DHT22;10326;53.660;10.200;2024-03-08T11:06:30;8.10;86.90
20337;DHT22;10326;53.660;10.200;2024-03-08T11:08:59;8.20;86.60
20337;DHT22;10326;53.660;10.200;2024-03-08T11:11:28;8.20;86.90
20337;DHT22;10326;53.660;10.200;2024-03-08T11:13:57;8.30;87.40
20337;DHT22;10326;53.660;10.200;2024-03-08T11:16:38;8.30;87.20
20337;DHT22;10326;53.660;10.200;2024-03-08T11:19:24;8.40;86.70
20337;DHT22;10326;53.660;10.200;2024-03-08T11:22:00;8.40;86.20
20337;DHT22;10326;53.660;10.200;2024-03-08T11:24:28;8.50;86.10
20337;DHT22;10326;53.660;10.200;2024-03-08T11:27:05;8.50;86.60
20337;DHT22;10326;53.660;10.200;2024-03-08T11:29:38;8.60;86.40
20337;DHT22;10326;53.660;10.200;2024-03-08T11:32:11;8.60;85.80
20337;DHT22;10326;53.660;10.200;2024-03-08T11:34:41;8.60;85.60
20337;DHT22;10326;53.660;10.200;2024-03-08T11:37:15;8.70;86.10
20337;DHT22;10326;53.660;10.200;2024-03-08T11:39:47;8.70;86.00
20337;DHT22;10326;53.660;10.200;2024-03-08T11:42:15;8.70;86.00
20337;DHT22;10326;53.660;10.200;2024-03-08T11:44:43;8.80;86.30
20337;DHT22;10326;53.660;10.200;2024-03-08T11:47:10;8.80;85.90
20337;DHT22;10326;53.660;10.200;2024-03-08T11:49:38;8.90;86.30
20337;DHT22;10326;53.660;10.200;2024-03-08T11:52:10;8.90;86.00
20337;DHT22;10326;53.660;10.200;2024-03-08T11:54:40;9.00;86.10
20337;DHT22;10326;53.660;10.200;2024-03-08T11:57:07;9.10;86.30
20337;DHT22;10326;53.660;10.200;2024-03-08T11:59:35;9.20;85.90
20337;DHT22;10326;53.660;10.200;2024-03-08T12:02:04;9.30;85.70
20337;DHT22;10326;53.660;10.200;2024-03-08T12:04:32;9.40;85.70
20337;DHT22;10326;53.660;10.200;2024-03-08T12:07:02;9.50;85.80
20337;DHT22;10326;53.660;10.200;2024-03-08T12:09:34;9.60;85.80
20337;DHT22;10326;53.660;10.200;2024-03-08T12:12:07;9.70;86.10
20337;DHT22;10326;53.660;10.200;2024-03-08T12:14:34;9.80;85.10
20337;DHT22;10326;53.660;10.200;2024-03-08T12:17:02;10.00;85.70
20337;DHT22;10326;53.660;10.200;2024-03-08T12:19:31;10.10;85.40
20337;DHT22;10326;53.660;10.200;2024-03-08T12:22:07;10.30;85.90
20337;DHT22;10326;53.660;10.200;2024-03-08T12:24:35;10.50;85.10
20337;DHT22;10326;53.660;10.200;2024-03-08T12:27:19;10.60;86.10
20337;DHT22;10326;53.660;10.200;2024-03-08T12:29:46;10.80;84.30
20337;DHT22;10326;53.660;10.200;2024-03-08T12:32:13;11.00;86.20
20337;DHT22;10326;53.660;10.200;2024-03-08T12:34:40;11.20;86.20
20337;DHT22;10326;53.660;10.200;2024-03-08T12:37:08;11.40;85.80
20337;DHT22;10326;53.660;10.200;2024-03-08T12:39:35;11.60;85.40
20337;DHT22;10326;53.660;10.200;2024-03-08T12:42:03;11.80;85.20
20337;DHT22;10326;53.660;10.200;2024-03-08T12:44:33;12.00;84.60
20337;DHT22;10326;53.660;10.200;2024-03-08T12:47:00;12.10;84.40
20337;DHT22;10326;53.660;10.200;2024-03-08T12:49:26;12.30;84.00
20337;DHT22;10326;53.660;10.200;2024-03-08T12:51:53;12.50;84.50
20337;DHT22;10326;53.660;10.200;2024-03-08T12:54:21;12.70;84.10
20337;DHT22;10326;53.660;10.200;2024-03-08T12:56:49;12.80;83.80
20337;DHT22;10326;53.660;10.200;2024-03-08T12:59:18;12.90;83.50
20337;DHT22;10326;53.660;10.200;2024-03-08T13:01:48;13.10;82.70
20337;DHT22;10326;53.660;10.200;2024-03-08T13:04:16;13.20;82.80
20337;DHT22;10326;53.660;10.200;2024-03-08T13:06:44;13.40;82.80
20337;DHT22;10326;53.660;10.200;2024-03-08T13:09:12;13.50;82.40
20337;DHT22;10326;53.660;10.200;2024-03-08T13:11:39;13.60;82.00
20337;DHT22;10326;53.660;10.200;2024-03-08T13:14:06;13.80;82.40
20337;DHT22;10326;53.660;10.200;2024-03-08T13:16:33;13.90;81.60
20337;DHT22;10326;53.660;10.200;2024-03-08T13:19:02;14.10;81.10
20337;DHT22;10326;53.660;10.200;2024-03-08T13:21:31;14.20;80.60
20337;DHT22;10326;53.660;10.200;2024-03-08T13:24:01;14.30;79.80
20337;DHT22;10326;53.660;10.200;2024-03-08T13:26:28;14.40;79.40
20337;DHT22;10326;53.660;10.200;2024-03-08T13:28:58;14.40;79.20
20337;DHT22;10326;53.660;10.200;2024-03-08T13:31:25;14.50;78.70
20337;DHT22;10326;53.660;10.200;2024-03-08T13:33:52;14.60;78.30
20337;DHT22;10326;53.660;10.200;2024-03-08T13:36:25;14.60;78.10
20337;DHT22;10326;53.660;10.200;2024-03-08T13:38:55;14.60;77.70
20337;DHT22;10326;53.660;10.200;2024-03-08T13:41:24;14.70;77.80
20337;DHT22;10326;53.660;10.200;2024-03-08T13:43:51;14.70;78.80
20337;DHT22;10326;53.660;10.200;2024-03-08T13:46:18;14.80;76.80
20337;DHT22;10326;53.660;10.200;2024-03-08T13:48:45;14.90;76.60
20337;DHT22;10326;53.660;10.200;2024-03-08T13:51:13;14.90;76.40
20337;DHT22;10326;53.660;10.200;2024-03-08T13:53:44;14.90;76.10
20337;DHT22;10326;53.660;10.200;2024-03-08T13:56:11;15.00;75.10
20337;DHT22;10326;53.660;10.200;2024-03-08T13:58:40;15.00;75.30
20337;DHT22;10326;53.660;10.200;2024-03-08T14:01:06;15.00;75.20
20337;DHT22;10326;53.660;10.200;2024-03-08T14:03:37;15.00;74.50
20337;DHT22;10326;53.660;10.200;2024-03-08T14:06:04;15.00;75.00
20337;DHT22;10326;53.660;10.200;2024-03-08T14:08:32;15.00;74.00
20337;DHT22;10326;53.660;10.200;2024-03-08T14:11:01;15.00;73.90
20337;DHT22;10326;53.660;10.200;2024-03-08T14:13:40;15.00;73.00
20337;DHT22;10326;53.660;10.200;2024-03-08T14:16:08;15.00;73.00
20337;DHT22;10326;53.660;10.200;2024-03-08T14:18:36;15.00;73.10
20337;DHT22;10326;53.660;10.200;2024-03-08T14:21:03;14.90;72.80
20337;DHT22;10326;53.660;10.200;2024-03-08T14:23:30;14.90;72.50
20337;DHT22;10326;53.660;10.200;2024-03-08T14:25:58;14.80;72.20
20337;DHT22;10326;53.660;10.200;2024-03-08T14:28:27;14.80;71.70
20337;DHT22;10326;53.660;10.200;2024-03-08T14:30:54;14.70;70.80
20337;DHT22;10326;53.660;10.200;2024-03-08T14:33:21;14.60;70.30
20337;DHT22;10326;53.660;10.200;2024-03-08T14:35:49;14.50;70.40
20337;DHT22;10326;53.660;10.200;2024-03-08T14:38:16;14.40;70.30
20337;DHT22;10326;53.660;10.200;2024-03-08T14:40:43;14.30;70.50
20337;DHT22;10326;53.660;10.200;2024-03-08T14:43:12;14.20;70.80
20337;DHT22;10326;53.660;10.200;2024-03-08T14:45:41;14.10;70.60
20337;DHT22;10326;53.660;10.200;2024-03-08T14:48:08;14.00;70.20
20337;DHT22;10326;53.660;10.200;2024-03-08T14:50:37;13.90;70.00
20337;DHT22;10326;53.660;10.200;2024-03-08T14:53:04;13.80;70.00
20337;DHT22;10326;53.660;10.200;2024-03-08T14:55:32;13.70;69.60
20337;DHT22;10326;53.660;10.200;2024-03-08T14:58:00;13.60;69.30
20337;DHT22;10326;53.660;10.200;2024-03-08T15:00:27;13.50;70.30
20337;DHT22;10326;53.660;10.200;2024-03-08T15:03:00;13.40;69.80
20337;DHT22;10326;53.660;10.200;2024-03-08T15:05:30;13.30;69.00
20337;DHT22;10326;53.660;10.200;2024-03-08T15:07:58;13.30;69.40
20337;DHT22;10326;53.660;10.200;2024-03-08T15:10:26;13.20;69.50
20337;DHT22;10326;53.660;10.200;2024-03-08T15:12:54;13.10;69.40
20337;DHT22;10326;53.660;10.200;2024-03-08T15:15:24;13.10;69.40
20337;DHT22;10326;53.660;10.200;2024-03-08T15:17:51;13.00;69.40
20337;DHT22;10326;53.660;10.200;2024-03-08T15:20:21;12.90;69.40
20337;DHT22;10326;53.660;10.200;2024-03-08T15:22:51;12.90;68.90
20337;DHT22;10326;53.660;10.200;2024-03-08T15:25:20;12.90;69.00
20337;DHT22;10326;53.660;10.200;2024-03-08T15:27:51;12.80;69.50
20337;DHT22;10326;53.660;10.200;2024-03-08T15:30:20;12.70;69.30
20337;DHT22;10326;53.660;10.200;2024-03-08T15:32:52;12.70;68.40
20337;DHT22;10326;53.660;10.200;2024-03-08T15:35:23;12.70;68.80